sensor_id;sensor_type;location;lat;lon;timestamp;temperature;humidity
3684;DHT22;1858;48.716;9.648;2023-03-21T00:01:35;10.20;99.90
3684;DHT22;1858;48.716;9.648;2023-03-21T00:04:03;10.20;99.90
3684;DHT22;1858;48.716;9.648;2023-03-21T00:06:32;10.20;99.90
3684;DHT22;1858;48.716;9.648;2023-03-21T00:09:00;10.20;97.10
3684;DHT22;1858;48.716;9.648;2023-03-21T00:11:30;10.10;91.30
3684;DHT22;1858;48.716;9.648;2023-03-21T00:13:58;10.10;79.40
3684;DHT22;1858;48.716;9.648;2023-03-21T00:16:29;10.10;71.90
3684;DHT22;1858;48.716;9.648;2023-03-21T00:18:58;10.00;61.80
3684;DHT22;1858;48.716;9.648;2023-03-21T00:21:29;10.00;58.90
3684;DHT22;1858;48.716;9.648;2023-03-21T00:23:59;10.00;61.30
3684;DHT22;1858;48.716;9.648;2023-03-21T00:26:28;10.00;49.20
3684;DHT22;1858;48.716;9.648;2023-03-21T00:28:56;10.00;53.10
3684;DHT22;1858;48.716;9.648;2023-03-21T00:31:25;9.90;47.90
3684;DHT22;1858;48.716;9.648;2023-03-21T00:33:53;9.80;50.80
3684;DHT22;1858;48.716;9.648;2023-03-21T00:36:22;9.80;74.00
3684;DHT22;1858;48.716;9.648;2023-03-21T00:38:52;9.80;88.00
3684;DHT22;1858;48.716;9.648;2023-03-21T00:41:21;9.80;99.90
3684;DHT22;1858;48.716;9.648;2023-03-21T00:43:50;9.80;99.90
3684;DHT22;1858;48.716;9.648;2023-03-21T00:46:20;9.80;99.90
3684;DHT22;1858;48.716;9.648;2023-03-21T00:48:48;9.80;99.90
3684;DHT22;1858;48.716;9.648;2023-03-21T00:51:20;9.80;99.90
3684;DHT22;1858;48.716;9.648;2023-03-21T00:53:52;9.80;99.90
3684;DHT22;1858;48.716;9.648;2023-03-21T00:56:20;9.70;99.90
3684;DHT22;1858;48.716;9.648;2023-03-21T00:58:49;9.70;99.90
3684;DHT22;1858;48.716;9.648;2023-03-21T01:01:17;9.70;99.90
3684;DHT22;1858;48.716;9.648;2023-03-21T01:03:46;9.70;99.90
3684;DHT22;1858;48.716;9.648;2023-03-21T01:06:19;9.70;99.90
3684;DHT22;1858;48.716;9.648;2023-03-21T01:08:48;9.70;99.90
3684;DHT22;1858;48.716;9.648;2023-03-21T01:11:18;9.70;99.90
3684;DHT22;1858;48.716;9.648;2023-03-21T01:13:46;9.70;99.90
3684;DHT22;1858;48.716;9.648;2023-03-21T01:16:17;9.70;99.90
3684;DHT22;1858;48.716;9.648;2023-03-21T01:18:46;9.70;99.90
3684;DHT22;1858;48.716;9.648;2023-03-21T01:21:14;9.70;99.90
3684;DHT22;1858;48.716;9.648;2023-03-21T01:23:43;9.70;99.90
3684;DHT22;1858;48.716;9.648;2023-03-21T01:26:13;9.60;99.90
3684;DHT22;1858;48.716;9.648;2023-03-21T01:28:43;9.60;99.90
3684;DHT22;1858;48.716;9.648;2023-03-21T01:31:13;9.60;99.90
3684;DHT22;1858;48.716;9.648;2023-03-21T01:33:43;9.60;99.90
3684;DHT22;1858;48.716;9.648;2023-03-21T01:36:19;9.60;99.90
3684;DHT22;1858;48.716;9.648;2023-03-21T01:38:48;9.60;99.90
3684;DHT22;1858;48.716;9.648;2023-03-21T01:41:31;9.60;99.90
3684;DHT22;1858;48.716;9.648;2023-03-21T01:44:00;9.60;99.90
3684;DHT22;1858;48.716;9.648;2023-03-21T01:46:42;9.70;99.90
3684;DHT22;1858;48.716;9.648;2023-03-21T01:49:21;9.70;99.90
3684;DHT22;1858;48.716;9.648;2023-03-21T01:51:56;9.70;99.90
3684;DHT22;1858;48.716;9.648;2023-03-21T01:54:28;9.70;99.90
3684;DHT22;1858;48.716;9.648;2023-03-21T01:57:00;9.70;99.90
3684;DHT22;1858;48.716;9.648;2023-03-21T01:59:50;9.70;99.90
3684;DHT22;1858;48.716;9.648;2023-03-21T02:02:28;9.60;99.90
3684;DHT22;1858;48.716;9.648;2023-03-21T02:05:02;9.70;99.90
3684;DHT22;1858;48.716;9.648;2023-03-21T02:07:33;9.70;99.90
3684;DHT22;1858;48.716;9.648;2023-03-21T02:10:04;9.70;99.90
3684;DHT22;1858;48.716;9.648;2023-03-21T02:12:36;9.70;99.90
3684;DHT22;1858;48.716;9.648;2023-03-21T02:15:06;9.70;99.90
3684;DHT22;1858;48.716;9.648;2023-03-21T02:18:25;9.70;99.90
3684;DHT22;1858;48.716;9.648;2023-03-21T02:28:54;9.70;99.90
3684;DHT22;1858;48.716;9.648;2023-03-21T02:31:37;9.70;99.90
3684;DHT22;1858;48.716;9.648;2023-03-21T02:40:06;9.80;99.90
3684;DHT22;1858;48.716;9.648;2023-03-21T02:45:35;9.70;99.90
3684;DHT22;1858;48.716;9.648;2023-03-21T02:48:07;9.60;99.90
3684;DHT22;1858;48.716;9.648;2023-03-21T02:50:40;9.70;99.90
3684;DHT22;1858;48.716;9.648;2023-03-21T02:53:09;9.50;99.90
3684;DHT22;1858;48.716;9.648;2023-03-21T02:55:39;9.40;99.90
3684;DHT22;1858;48.716;9.648;2023-03-21T02:58:12;9.30;99.90
3684;DHT22;1858;48.716;9.648;2023-03-21T03:00:41;9.20;99.90
3684;DHT22;1858;48.716;9.648;2023-03-21T03:03:12;9.20;99.90
3684;DHT22;1858;48.716;9.648;2023-03-21T03:05:47;9.30;99.90
3684;DHT22;1858;48.716;9.648;2023-03-21T03:08:36;9.30;99.90
3684;DHT22;1858;48.716;9.648;2023-03-21T03:19:29;9.40;99.90
3684;DHT22;1858;48.716;9.648;2023-03-21T03:22:05;9.50;99.90
3684;DHT22;1858;48.716;9.648;2023-03-21T03:25:04;9.50;99.90
3684;DHT22;1858;48.716;9.648;2023-03-21T03:27:31;9.50;99.90
3684;DHT22;1858;48.716;9.648;2023-03-21T03:30:01;9.50;99.90
3684;DHT22;1858;48.716;9.648;2023-03-21T03:32:45;9.50;99.90
3684;DHT22;1858;48.716;9.648;2023-03-21T03:35:16;9.40;99.90
3684;DHT22;1858;48.716;9.648;2023-03-21T03:37:58;9.50;99.90
3684;DHT22;1858;48.716;9.648;2023-03-21T03:40:36;9.40;99.90
3684;DHT22;1858;48.716;9.648;2023-03-21T03:43:08;9.50;99.90
3684;DHT22;1858;48.716;9.648;2023-03-21T03:45:46;9.50;99.90
3684;DHT22;1858;48.716;9.648;2023-03-21T03:48:27;9.50;99.90
3684;DHT22;1858;48.716;9.648;2023-03-21T03:51:03;9.50;99.90
3684;DHT22;1858;48.716;9.648;2023-03-21T03:56:19;9.60;99.90
3684;DHT22;1858;48.716;9.648;2023-03-21T03:58:49;9.60;99.90
3684;DHT22;1858;48.716;9.648;2023-03-21T04:01:18;9.60;99.90
3684;DHT22;1858;48.716;9.648;2023-03-21T04:03:47;9.60;99.90
3684;DHT22;1858;48.716;9.648;2023-03-21T04:06:17;9.60;99.90
3684;DHT22;1858;48.716;9.648;2023-03-21T04:08:46;9.60;99.90
3684;DHT22;1858;48.716;9.648;2023-03-21T04:11:15;9.70;99.90
3684;DHT22;1858;48.716;9.648;2023-03-21T04:13:43;9.70;99.90
3684;DHT22;1858;48.716;9.648;2023-03-21T04:16:12;9.70;99.90
3684;DHT22;1858;48.716;9.648;2023-03-21T04:18:41;9.70;99.90
3684;DHT22;1858;48.716;9.648;2023-03-21T04:21:11;9.70;99.90
3684;DHT22;1858;48.716;9.648;2023-03-21T04:23:41;9.70;99.90
3684;DHT22;1858;48.716;9.648;2023-03-21T04:26:10;9.70;99.90
3684;DHT22;1858;48.716;9.648;2023-03-21T04:28:39;9.70;99.90
3684;DHT22;1858;48.716;9.648;2023-03-21T04:31:08;9.70;99.90
3684;DHT22;1858;48.716;9.648;2023-03-21T04:33:36;9.70;99.90
3684;DHT22;1858;48.716;9.648;2023-03-21T04:36:08;9.70;99.90
3684;DHT22;1858;48.716;9.648;2023-03-21T04:38:38;9.70;99.90
3684;DHT22;1858;48.716;9.648;2023-03-21T04:41:07;9.70;99.90
3684;DHT22;1858;48.716;9.648;2023-03-21T04:43:35;9.70;99.90
3684;DHT22;1858;48.716;9.648;2023-03-21T04:46:04;9.70;99.90
3684;DHT22;1858;48.716;9.648;2023-03-21T04:48:32;9.70;99.90
3684;DHT22;1858;48.716;9.648;2023-03-21T04:51:01;9.70;99.90
3684;DHT22;1858;48.716;9.648;2023-03-21T04:53:29;9.70;99.90
3684;DHT22;1858;48.716;9.648;2023-03-21T04:55:58;9.70;99.90
3684;DHT22;1858;48.716;9.648;2023-03-21T04:58:27;9.60;99.90
3684;DHT22;1858;48.716;9.648;2023-03-21T05:00:57;9.60;99.90
3684;DHT22;1858;48.716;9.648;2023-03-21T05:03:25;9.60;99.90
3684;DHT22;1858;48.716;9.648;2023-03-21T05:05:55;9.60;99.90
3684;DHT22;1858;48.716;9.648;2023-03-21T05:08:24;9.70;99.90
3684;DHT22;1858;48.716;9.648;2023-03-21T05:10:53;9.70;99.90
3684;DHT22;1858;48.716;9.648;2023-03-21T05:13:21;9.70;99.90
3684;DHT22;1858;48.716;9.648;2023-03-21T05:15:54;9.60;99.90
3684;DHT22;1858;48.716;9.648;2023-03-21T05:18:23;9.60;99.90
3684;DHT22;1858;48.716;9.648;2023-03-21T05:20:53;9.60;99.90
3684;DHT22;1858;48.716;9.648;2023-03-21T05:23:22;9.60;99.90
3684;DHT22;1858;48.716;9.648;2023-03-21T05:25:54;9.60;99.90
3684;DHT22;1858;48.716;9.648;2023-03-21T05:28:26;9.50;99.90
3684;DHT22;1858;48.716;9.648;2023-03-21T05:30:56;9.60;99.90
3684;DHT22;1858;48.716;9.648;2023-03-21T05:33:25;9.60;99.90
3684;DHT22;1858;48.716;9.648;2023-03-21T05:35:53;9.60;99.90
3684;DHT22;1858;48.716;9.648;2023-03-21T05:38:22;9.60;99.90
3684;DHT22;1858;48.716;9.648;2023-03-21T05:40:52;9.60;99.90
3684;DHT22;1858;48.716;9.648;2023-03-21T05:43:21;9.50;99.90
3684;DHT22;1858;48.716;9.648;2023-03-21T05:45:50;9.50;99.90
3684;DHT22;1858;48.716;9.648;2023-03-21T05:48:19;9.50;99.90
3684;DHT22;1858;48.716;9.648;2023-03-21T05:50:48;9.60;99.90
3684;DHT22;1858;48.716;9.648;2023-03-21T05:53:17;9.60;99.90
3684;DHT22;1858;48.716;9.648;2023-03-21T05:55:50;9.50;99.90
3684;DHT22;1858;48.716;9.648;2023-03-21T05:58:18;9.60;99.90
3684;DHT22;1858;48.716;9.648;2023-03-21T06:00:49;9.60;99.90
3684;DHT22;1858;48.716;9.648;2023-03-21T06:03:19;9.70;99.90
3684;DHT22;1858;48.716;9.648;2023-03-21T06:05:49;9.70;99.90
3684;DHT22;1858;48.716;9.648;2023-03-21T06:08:18;9.70;99.90
3684;DHT22;1858;48.716;9.648;2023-03-21T06:10:47;9.80;99.90
3684;DHT22;1858;48.716;9.648;2023-03-21T06:13:15;9.90;99.90
3684;DHT22;1858;48.716;9.648;2023-03-21T06:15:52;10.00;99.90
3684;DHT22;1858;48.716;9.648;2023-03-21T06:18:24;10.10;99.90
3684;DHT22;1858;48.716;9.648;2023-03-21T06:20:56;10.20;99.90
3684;DHT22;1858;48.716;9.648;2023-03-21T06:23:25;10.30;99.90
3684;DHT22;1858;48.716;9.648;2023-03-21T06:25:56;10.40;99.90
3684;DHT22;1858;48.716;9.648;2023-03-21T06:28:28;10.40;99.90
3684;DHT22;1858;48.716;9.648;2023-03-21T06:30:57;10.50;99.90
3684;DHT22;1858;48.716;9.648;2023-03-21T06:33:53;10.70;99.90
3684;DHT22;1858;48.716;9.648;2023-03-21T06:36:14;10.70;99.90
3684;DHT22;1858;48.716;9.648;2023-03-21T06:38:45;10.70;99.90
3684;DHT22;1858;48.716;9.648;2023-03-21T06:41:24;10.60;99.90
3684;DHT22;1858;48.716;9.648;2023-03-21T06:43:49;10.60;99.90
3684;DHT22;1858;48.716;9.648;2023-03-21T06:46:18;10.60;99.90
3684;DHT22;1858;48.716;9.648;2023-03-21T06:48:47;10.70;99.90
3684;DHT22;1858;48.716;9.648;2023-03-21T06:51:15;10.60;99.90
3684;DHT22;1858;48.716;9.648;2023-03-21T06:53:44;10.80;99.90
3684;DHT22;1858;48.716;9.648;2023-03-21T06:56:16;10.90;91.90
3684;DHT22;1858;48.716;9.648;2023-03-21T06:58:45;11.00;76.60
3684;DHT22;1858;48.716;9.648;2023-03-21T07:01:14;11.10;35.40
3684;DHT22;1858;48.716;9.648;2023-03-21T07:03:43;11.20;28.60
3684;DHT22;1858;48.716;9.648;2023-03-21T07:06:22;11.30;8.30
3684;DHT22;1858;48.716;9.648;2023-03-21T07:08:50;11.60;1.00
3684;DHT22;1858;48.716;9.648;2023-03-21T07:11:24;11.70;1.00
3684;DHT22;1858;48.716;9.648;2023-03-21T07:13:58;11.80;1.00
3684;DHT22;1858;48.716;9.648;2023-03-21T07:16:32;11.90;1.00
3684;DHT22;1858;48.716;9.648;2023-03-21T07:19:01;12.10;1.00
3684;DHT22;1858;48.716;9.648;2023-03-21T07:21:29;12.30;1.00
3684;DHT22;1858;48.716;9.648;2023-03-21T07:23:58;12.60;1.00
3684;DHT22;1858;48.716;9.648;2023-03-21T07:26:27;12.70;1.00
3684;DHT22;1858;48.716;9.648;2023-03-21T07:28:59;13.10;1.00
3684;DHT22;1858;48.716;9.648;2023-03-21T07:31:28;13.40;1.00
3684;DHT22;1858;48.716;9.648;2023-03-21T07:33:59;13.60;1.00
3684;DHT22;1858;48.716;9.648;2023-03-21T07:36:27;13.80;1.00
3684;DHT22;1858;48.716;9.648;2023-03-21T07:38:56;14.10;1.00
3684;DHT22;1858;48.716;9.648;2023-03-21T07:41:26;14.50;1.00
3684;DHT22;1858;48.716;9.648;2023-03-21T07:44:08;14.80;1.00
3684;DHT22;1858;48.716;9.648;2023-03-21T07:46:39;15.20;1.00
3684;DHT22;1858;48.716;9.648;2023-03-21T07:49:08;15.50;1.00
3684;DHT22;1858;48.716;9.648;2023-03-21T07:51:41;15.80;99.90
3684;DHT22;1858;48.716;9.648;2023-03-21T07:54:12;16.10;99.90
3684;DHT22;1858;48.716;9.648;2023-03-21T07:56:58;16.50;99.90
3684;DHT22;1858;48.716;9.648;2023-03-21T07:59:12;16.80;99.90
3684;DHT22;1858;48.716;9.648;2023-03-21T08:01:41;17.00;99.90
3684;DHT22;1858;48.716;9.648;2023-03-21T08:04:09;17.30;99.90
3684;DHT22;1858;48.716;9.648;2023-03-21T08:06:38;17.70;99.90
3684;DHT22;1858;48.716;9.648;2023-03-21T08:09:10;18.30;99.90
3684;DHT22;1858;48.716;9.648;2023-03-21T08:11:39;18.80;99.90
3684;DHT22;1858;48.716;9.648;2023-03-21T08:14:08;19.50;99.90
3684;DHT22;1858;48.716;9.648;2023-03-21T08:16:38;20.30;99.90
3684;DHT22;1858;48.716;9.648;2023-03-21T08:19:07;20.90;99.90
3684;DHT22;1858;48.716;9.648;2023-03-21T08:21:38;21.00;99.90
3684;DHT22;1858;48.716;9.648;2023-03-21T08:24:07;21.60;99.90
3684;DHT22;1858;48.716;9.648;2023-03-21T08:26:39;21.50;99.90
3684;DHT22;1858;48.716;9.648;2023-03-21T08:29:14;22.00;99.90
3684;DHT22;1858;48.716;9.648;2023-03-21T08:31:50;22.60;99.90
3684;DHT22;1858;48.716;9.648;2023-03-21T08:34:18;23.30;99.90
3684;DHT22;1858;48.716;9.648;2023-03-21T08:36:59;24.00;99.90
3684;DHT22;1858;48.716;9.648;2023-03-21T08:39:27;24.20;99.90
3684;DHT22;1858;48.716;9.648;2023-03-21T08:42:02;24.10;99.90
3684;DHT22;1858;48.716;9.648;2023-03-21T08:44:32;24.50;99.90
3684;DHT22;1858;48.716;9.648;2023-03-21T08:47:04;24.90;99.90
3684;DHT22;1858;48.716;9.648;2023-03-21T08:49:37;25.80;99.90
3684;DHT22;1858;48.716;9.648;2023-03-21T08:52:07;26.40;99.90
3684;DHT22;1858;48.716;9.648;2023-03-21T08:54:35;26.70;99.90
3684;DHT22;1858;48.716;9.648;2023-03-21T08:57:08;27.70;99.90
3684;DHT22;1858;48.716;9.648;2023-03-21T08:59:37;28.60;73.80
3684;DHT22;1858;48.716;9.648;2023-03-21T09:02:16;29.30;52.30
3684;DHT22;1858;48.716;9.648;2023-03-21T09:04:46;29.40;38.10
3684;DHT22;1858;48.716;9.648;2023-03-21T09:07:29;29.00;28.30
3684;DHT22;1858;48.716;9.648;2023-03-21T09:09:59;28.50;1.00
3684;DHT22;1858;48.716;9.648;2023-03-21T09:12:28;28.40;2.00
3684;DHT22;1858;48.716;9.648;2023-03-21T09:14:56;28.50;4.60
3684;DHT22;1858;48.716;9.648;2023-03-21T09:17:28;29.00;4.00
3684;DHT22;1858;48.716;9.648;2023-03-21T09:19:58;29.70;1.00
3684;DHT22;1858;48.716;9.648;2023-03-21T09:22:28;30.50;1.00
3684;DHT22;1858;48.716;9.648;2023-03-21T09:24:59;30.90;1.00
3684;DHT22;1858;48.716;9.648;2023-03-21T09:27:32;30.50;1.00
3684;DHT22;1858;48.716;9.648;2023-03-21T09:30:09;30.80;1.00
3684;DHT22;1858;48.716;9.648;2023-03-21T09:32:41;31.30;1.00
3684;DHT22;1858;48.716;9.648;2023-03-21T09:35:15;32.10;1.00
3684;DHT22;1858;48.716;9.648;2023-03-21T09:37:50;32.70;1.00
3684;DHT22;1858;48.716;9.648;2023-03-21T09:40:46;32.80;1.00
3684;DHT22;1858;48.716;9.648;2023-03-21T09:43:22;33.30;1.00
3684;DHT22;1858;48.716;9.648;2023-03-21T09:46:01;33.30;1.00
3684;DHT22;1858;48.716;9.648;2023-03-21T09:48:54;33.40;1.00
3684;DHT22;1858;48.716;9.648;2023-03-21T09:51:29;33.60;1.00
3684;DHT22;1858;48.716;9.648;2023-03-21T09:54:01;34.10;1.00
3684;DHT22;1858;48.716;9.648;2023-03-21T09:56:30;34.40;1.00
3684;DHT22;1858;48.716;9.648;2023-03-21T09:59:00;34.30;1.00
3684;DHT22;1858;48.716;9.648;2023-03-21T10:01:30;34.80;1.00
3684;DHT22;1858;48.716;9.648;2023-03-21T10:04:05;34.80;1.00
3684;DHT22;1858;48.716;9.648;2023-03-21T10:06:36;34.20;1.00
3684;DHT22;1858;48.716;9.648;2023-03-21T10:09:13;34.00;1.00
3684;DHT22;1858;48.716;9.648;2023-03-21T10:11:50;33.70;1.00
3684;DHT22;1858;48.716;9.648;2023-03-21T10:14:39;33.50;1.00
3684;DHT22;1858;48.716;9.648;2023-03-21T10:17:28;33.40;1.00
3684;DHT22;1858;48.716;9.648;2023-03-21T10:22:59;31.80;1.00
3684;DHT22;1858;48.716;9.648;2023-03-21T10:26:14;31.50;1.00
3684;DHT22;1858;48.716;9.648;2023-03-21T10:27:58;31.00;1.00
3684;DHT22;1858;48.716;9.648;2023-03-21T10:33:17;29.90;1.00
3684;DHT22;1858;48.716;9.648;2023-03-21T10:35:55;29.30;1.00
3684;DHT22;1858;48.716;9.648;2023-03-21T10:38:28;28.90;10.70
3684;DHT22;1858;48.716;9.648;2023-03-21T10:40:57;28.70;10.10
3684;DHT22;1858;48.716;9.648;2023-03-21T10:43:32;28.40;7.50
3684;DHT22;1858;48.716;9.648;2023-03-21T10:46:18;27.80;2.10
3684;DHT22;1858;48.716;9.648;2023-03-21T10:48:50;27.60;14.00
3684;DHT22;1858;48.716;9.648;2023-03-21T10:54:15;27.00;24.70
3684;DHT22;1858;48.716;9.648;2023-03-21T10:59:37;26.50;27.90
3684;DHT22;1858;48.716;9.648;2023-03-21T11:02:15;26.40;35.80
3684;DHT22;1858;48.716;9.648;2023-03-21T11:04:42;26.40;35.20
3684;DHT22;1858;48.716;9.648;2023-03-21T11:07:10;26.60;36.10
3684;DHT22;1858;48.716;9.648;2023-03-21T11:12:41;26.50;29.10
3684;DHT22;1858;48.716;9.648;2023-03-21T11:21:01;26.90;18.00
3684;DHT22;1858;48.716;9.648;2023-03-21T11:23:28;26.90;41.40
3684;DHT22;1858;48.716;9.648;2023-03-21T11:25:59;26.90;40.50
3684;DHT22;1858;48.716;9.648;2023-03-21T11:28:42;26.90;49.50
3684;DHT22;1858;48.716;9.648;2023-03-21T11:31:11;26.70;35.30
3684;DHT22;1858;48.716;9.648;2023-03-21T11:33:45;26.30;41.50
3684;DHT22;1858;48.716;9.648;2023-03-21T11:39:11;25.90;47.80
3684;DHT22;1858;48.716;9.648;2023-03-21T11:41:32;25.70;39.90
3684;DHT22;1858;48.716;9.648;2023-03-21T11:44:06;25.50;47.20
3684;DHT22;1858;48.716;9.648;2023-03-21T11:46:38;25.30;38.80
3684;DHT22;1858;48.716;9.648;2023-03-21T11:49:10;25.00;37.70
3684;DHT22;1858;48.716;9.648;2023-03-21T12:00:17;24.20;70.90
3684;DHT22;1858;48.716;9.648;2023-03-21T12:05:42;24.00;69.10
3684;DHT22;1858;48.716;9.648;2023-03-21T12:11:13;23.80;93.10
3684;DHT22;1858;48.716;9.648;2023-03-21T12:14:11;23.00;99.90
3684;DHT22;1858;48.716;9.648;2023-03-21T12:24:55;22.90;99.90
3684;DHT22;1858;48.716;9.648;2023-03-21T12:33:40;22.80;99.90
3684;DHT22;1858;48.716;9.648;2023-03-21T12:39:36;22.60;99.90
3684;DHT22;1858;48.716;9.648;2023-03-21T12:45:35;22.50;99.90
3684;DHT22;1858;48.716;9.648;2023-03-21T13:00:16;22.10;99.90
3684;DHT22;1858;48.716;9.648;2023-03-21T13:03:02;22.00;99.90
3684;DHT22;1858;48.716;9.648;2023-03-21T13:05:32;21.90;99.90
3684;DHT22;1858;48.716;9.648;2023-03-21T13:08:06;21.90;99.90
3684;DHT22;1858;48.716;9.648;2023-03-21T13:10:39;21.80;99.90
3684;DHT22;1858;48.716;9.648;2023-03-21T13:13:24;21.80;99.90
3684;DHT22;1858;48.716;9.648;2023-03-21T13:16:11;21.60;99.90
3684;DHT22;1858;48.716;9.648;2023-03-21T13:18:51;21.60;99.90
3684;DHT22;1858;48.716;9.648;2023-03-21T13:21:32;21.60;99.90
3684;DHT22;1858;48.716;9.648;2023-03-21T13:24:04;21.70;99.90
3684;DHT22;1858;48.716;9.648;2023-03-21T13:26:40;21.60;99.90
3684;DHT22;1858;48.716;9.648;2023-03-21T13:29:22;21.50;99.90
3684;DHT22;1858;48.716;9.648;2023-03-21T13:31:53;21.50;99.90
3684;DHT22;1858;48.716;9.648;2023-03-21T13:34:35;21.40;99.90
3684;DHT22;1858;48.716;9.648;2023-03-21T13:37:03;21.50;99.90
3684;DHT22;1858;48.716;9.648;2023-03-21T13:39:35;21.40;99.90
3684;DHT22;1858;48.716;9.648;2023-03-21T13:42:05;21.40;99.90
3684;DHT22;1858;48.716;9.648;2023-03-21T13:44:47;21.40;99.90
3684;DHT22;1858;48.716;9.648;2023-03-21T13:47:36;21.30;99.90
3684;DHT22;1858;48.716;9.648;2023-03-21T13:55:44;21.20;99.90
3684;DHT22;1858;48.716;9.648;2023-03-21T14:01:31;21.00;99.90
3684;DHT22;1858;48.716;9.648;2023-03-21T14:04:18;20.90;99.90
3684;DHT22;1858;48.716;9.648;2023-03-21T14:07:17;20.80;99.90
3684;DHT22;1858;48.716;9.648;2023-03-21T14:09:53;20.80;99.90
3684;DHT22;1858;48.716;9.648;2023-03-21T14:12:21;20.90;99.90
3684;DHT22;1858;48.716;9.648;2023-03-21T14:15:02;21.00;99.90
3684;DHT22;1858;48.716;9.648;2023-03-21T14:17:29;21.10;99.90
3684;DHT22;1858;48.716;9.648;2023-03-21T14:20:01;20.90;99.90
3684;DHT22;1858;48.716;9.648;2023-03-21T14:22:32;20.90;99.90
3684;DHT22;1858;48.716;9.648;2023-03-21T14:27:53;20.90;99.90
3684;DHT22;1858;48.716;9.648;2023-03-21T14:30:37;20.80;99.90
3684;DHT22;1858;48.716;9.648;2023-03-21T14:33:36;20.80;99.90
3684;DHT22;1858;48.716;9.648;2023-03-21T14:35:59;20.70;99.90
3684;DHT22;1858;48.716;9.648;2023-03-21T14:38:37;20.60;99.90
3684;DHT22;1858;48.716;9.648;2023-03-21T14:41:25;20.60;99.90
3684;DHT22;1858;48.716;9.648;2023-03-21T14:46:45;20.60;99.90
3684;DHT22;1858;48.716;9.648;2023-03-21T14:52:22;20.40;99.90
3684;DHT22;1858;48.716;9.648;2023-03-21T14:54:46;20.20;99.90
3684;DHT22;1858;48.716;9.648;2023-03-21T14:57:18;20.20;99.90
3684;DHT22;1858;48.716;9.648;2023-03-21T14:59:50;20.20;99.90
3684;DHT22;1858;48.716;9.648;2023-03-21T15:02:33;20.20;99.90
3684;DHT22;1858;48.716;9.648;2023-03-21T15:05:54;20.20;99.90
3684;DHT22;1858;48.716;9.648;2023-03-21T15:07:39;20.20;99.90
3684;DHT22;1858;48.716;9.648;2023-03-21T15:10:29;20.30;99.90
3684;DHT22;1858;48.716;9.648;2023-03-21T15:12:53;20.30;99.90
3684;DHT22;1858;48.716;9.648;2023-03-21T15:15:24;20.20;99.90
3684;DHT22;1858;48.716;9.648;2023-03-21T15:17:59;20.20;99.90
3684;DHT22;1858;48.716;9.648;2023-03-21T15:20:34;20.20;99.90
3684;DHT22;1858;48.716;9.648;2023-03-21T15:23:13;20.10;99.90
3684;DHT22;1858;48.716;9.648;2023-03-21T15:25:43;20.00;99.90
3684;DHT22;1858;48.716;9.648;2023-03-21T15:28:13;20.00;99.90
3684;DHT22;1858;48.716;9.648;2023-03-21T15:30:50;20.00;99.90
3684;DHT22;1858;48.716;9.648;2023-03-21T15:33:26;20.00;99.90
3684;DHT22;1858;48.716;9.648;2023-03-21T15:36:07;19.80;99.90
3684;DHT22;1858;48.716;9.648;2023-03-21T15:38:39;19.80;99.90
3684;DHT22;1858;48.716;9.648;2023-03-21T15:41:35;19.80;99.90
3684;DHT22;1858;48.716;9.648;2023-03-21T15:44:05;19.90;99.90
3684;DHT22;1858;48.716;9.648;2023-03-21T15:46:48;19.90;99.90
3684;DHT22;1858;48.716;9.648;2023-03-21T15:49:33;19.70;99.90
3684;DHT22;1858;48.716;9.648;2023-03-21T15:57:36;19.50;99.90
3684;DHT22;1858;48.716;9.648;2023-03-21T16:02:58;19.50;99.90
3684;DHT22;1858;48.716;9.648;2023-03-21T16:06:50;19.40;99.90
3684;DHT22;1858;48.716;9.648;2023-03-21T16:12:00;19.10;99.90
3684;DHT22;1858;48.716;9.648;2023-03-21T16:14:28;19.10;99.90
3684;DHT22;1858;48.716;9.648;2023-03-21T16:16:59;19.20;99.90
3684;DHT22;1858;48.716;9.648;2023-03-21T16:19:29;19.10;99.90
3684;DHT22;1858;48.716;9.648;2023-03-21T16:22:07;19.00;99.90
3684;DHT22;1858;48.716;9.648;2023-03-21T16:24:39;19.00;99.90
3684;DHT22;1858;48.716;9.648;2023-03-21T16:27:10;18.90;99.90
3684;DHT22;1858;48.716;9.648;2023-03-21T16:29:44;18.80;99.90
3684;DHT22;1858;48.716;9.648;2023-03-21T16:32:14;18.80;99.90
3684;DHT22;1858;48.716;9.648;2023-03-21T16:34:46;18.80;99.90
3684;DHT22;1858;48.716;9.648;2023-03-21T16:37:17;18.70;99.90
3684;DHT22;1858;48.716;9.648;2023-03-21T16:39:47;18.60;99.90
3684;DHT22;1858;48.716;9.648;2023-03-21T16:42:16;18.60;99.90
3684;DHT22;1858;48.716;9.648;2023-03-21T16:44:50;18.50;99.90
3684;DHT22;1858;48.716;9.648;2023-03-21T16:47:20;18.30;99.90
3684;DHT22;1858;48.716;9.648;2023-03-21T16:49:51;18.20;99.90
3684;DHT22;1858;48.716;9.648;2023-03-21T16:52:19;18.10;99.90
3684;DHT22;1858;48.716;9.648;2023-03-21T16:54:48;18.10;99.90
3684;DHT22;1858;48.716;9.648;2023-03-21T16:57:23;17.90;99.90
3684;DHT22;1858;48.716;9.648;2023-03-21T16:59:57;17.60;99.90
3684;DHT22;1858;48.716;9.648;2023-03-21T17:02:25;17.40;99.90
3684;DHT22;1858;48.716;9.648;2023-03-21T17:04:54;17.30;99.90
3684;DHT22;1858;48.716;9.648;2023-03-21T17:07:26;17.20;99.90
3684;DHT22;1858;48.716;9.648;2023-03-21T17:09:54;16.90;99.90
3684;DHT22;1858;48.716;9.648;2023-03-21T17:12:23;16.70;99.90
3684;DHT22;1858;48.716;9.648;2023-03-21T17:14:54;16.60;99.90
3684;DHT22;1858;48.716;9.648;2023-03-21T17:17:22;16.50;99.90
3684;DHT22;1858;48.716;9.648;2023-03-21T17:19:52;16.40;99.90
3684;DHT22;1858;48.716;9.648;2023-03-21T17:22:21;16.30;99.90
3684;DHT22;1858;48.716;9.648;2023-03-21T17:24:49;16.20;99.90
3684;DHT22;1858;48.716;9.648;2023-03-21T17:27:19;16.10;99.90
3684;DHT22;1858;48.716;9.648;2023-03-21T17:29:50;15.90;99.90
3684;DHT22;1858;48.716;9.648;2023-03-21T17:32:24;15.80;99.90
3684;DHT22;1858;48.716;9.648;2023-03-21T17:34:49;15.70;99.90
3684;DHT22;1858;48.716;9.648;2023-03-21T17:37:20;15.70;99.90
3684;DHT22;1858;48.716;9.648;2023-03-21T17:39:50;15.60;99.90
3684;DHT22;1858;48.716;9.648;2023-03-21T17:42:19;15.50;99.90
3684;DHT22;1858;48.716;9.648;2023-03-21T17:44:48;15.50;99.90
3684;DHT22;1858;48.716;9.648;2023-03-21T17:47:16;15.40;99.90
3684;DHT22;1858;48.716;9.648;2023-03-21T17:49:45;15.40;99.90
3684;DHT22;1858;48.716;9.648;2023-03-21T17:52:14;15.30;99.90
3684;DHT22;1858;48.716;9.648;2023-03-21T17:54:43;15.20;99.90
3684;DHT22;1858;48.716;9.648;2023-03-21T17:57:11;15.10;99.90
3684;DHT22;1858;48.716;9.648;2023-03-21T17:59:40;15.00;99.90
3684;DHT22;1858;48.716;9.648;2023-03-21T18:02:09;15.00;99.90
3684;DHT22;1858;48.716;9.648;2023-03-21T18:04:37;15.00;99.90
3684;DHT22;1858;48.716;9.648;2023-03-21T18:07:09;15.00;99.90
3684;DHT22;1858;48.716;9.648;2023-03-21T18:09:37;15.00;99.90
3684;DHT22;1858;48.716;9.648;2023-03-21T18:12:07;14.90;99.90
3684;DHT22;1858;48.716;9.648;2023-03-21T18:14:36;14.90;99.90
3684;DHT22;1858;48.716;9.648;2023-03-21T18:17:04;14.90;99.90
3684;DHT22;1858;48.716;9.648;2023-03-21T18:19:33;14.90;99.90
3684;DHT22;1858;48.716;9.648;2023-03-21T18:22:03;14.90;99.90
3684;DHT22;1858;48.716;9.648;2023-03-21T18:24:32;15.00;99.90
3684;DHT22;1858;48.716;9.648;2023-03-21T18:27:03;15.10;99.90
3684;DHT22;1858;48.716;9.648;2023-03-21T18:29:33;15.10;99.90
3684;DHT22;1858;48.716;9.648;2023-03-21T18:32:06;15.10;99.90
3684;DHT22;1858;48.716;9.648;2023-03-21T18:34:39;15.10;99.90
3684;DHT22;1858;48.716;9.648;2023-03-21T18:37:10;15.10;99.90
3684;DHT22;1858;48.716;9.648;2023-03-21T18:39:43;15.20;99.90
3684;DHT22;1858;48.716;9.648;2023-03-21T18:42:17;15.20;99.90
3684;DHT22;1858;48.716;9.648;2023-03-21T18:44:49;15.20;99.90
3684;DHT22;1858;48.716;9.648;2023-03-21T18:47:18;15.20;99.90
3684;DHT22;1858;48.716;9.648;2023-03-21T18:49:47;15.10;99.90
3684;DHT22;1858;48.716;9.648;2023-03-21T18:52:18;15.20;99.90